Northern & Central Napa County

32 Stations

15 Minute Data | America/Los_Angeles
as of 5/2/26 1:38 PM PDT
Station Date Time Temp (°F) RH (%) Dew Pt (°F) Wind Spd (mph) Wind Dir (°) Wind Gust (mph) Latest Rain (In) Daily Rain (In) Daily Max Temp (°F) Daily Min Temp (°F)
Calistoga-North 5/2/26 1330 71.2   6.9 57   7 55.0   2.9 - - - 0.00 0.00 83.7   3.4 45.5   0.0
Stags Leap Dist (Chimney Rock) 5/2/26 1330 64.7   4.2 69   4 54.4   2.2 5.8   1.4 SSE | 163 10.5   1.8 0.00 0.00 65.3   4.1 53.3   9.5
Diamond Mtn (McEachran) 5/2/26 1330 65.9   5.8 63   4 52.8   3.5 - - - - - 67.4   4.9 51.2   3.0
Diamond Mtn (Schramsberg) 5/2/26 1330 63.8   6.8 66   7 52.4   3.5 - - - 0.00 0.00 65.2   6.0 49.3   0.4
Stags Leap Dist (Silverado Vineyards) 5/2/26 1330 64.4   4.2 62   4 51.2   2.1 6.5   1.3 SE | 124 13.0   2.8 0.00 0.00 65.0   4.0 52.3   7.2
Oak Knoll-East (Ranch 53) 5/2/26 1330 64.3   3.7 62   3 51.2   2.3 5.5   0.9 SSE | 157 11.0   1.7 0.00 0.00 64.9   3.4 51.8   6.7
Rutherford-North (Mee Ln) 5/2/26 1330 67.6   3.8 60   3 53.2   2.1 6.4   2.4 SE | 142 12.9   4.8 0.00 0.00 68.4   3.6 50.1   7.5
Frisinger Napa-NW 5/2/26 1330 64.9   3.7 67   4 53.6   1.8 9.0   4.1 SSE | 162 16.7   6.7 0.00 0.00 64.9   4.2 49.5   3.5
Napa-North (Ranch 29) 5/2/26 1330 62.6   4.2 67   4 51.4   2.2 3.5   1.3 SSE | 165 8.6   0.7 0.00 0.00 63.4   4.2 53.1   7.0
St. Helena (NVV Office) 5/2/26 1330 68.9   4.2 - - 2.9   0.4 ESE | 123 7.7   2.5 0.00 0.00 70.3   4.2 53.1   5.7
Crossroads Ranch 5/2/26 1330 65.9   4.7 64   4 53.3   2.6 9.0   5.0 SE | 139 15.6   7.6 0.00 0.00 66.2   4.4 52.4   6.2
Oakville 5/2/26 1330 65.8   4.0 61   5 51.9   1.5 8.1   3.3 SE | 138 16.9   8.0 0.00 0.00 66.8   3.6 52.1   6.8
OV561-East 5/2/26 1330 65.8   4.0 - - - - - - - 66.2   3.9 52.1   5.3
OV518-West 5/2/26 1330 66.4   4.0 - - - - - - - 67.1   3.8 52.6   6.3
Napa-NW (Ranch 54) 5/2/26 1330 66.7   5.0 59   4 51.9   2.6 1.5   0.2 SE | 145 4.8   0.4 0.00 0.00 67.2   4.9 51.3   4.6
Calistoga (Ranch 78) 5/2/26 1330 69.9   4.6 56   1 53.3   4.6 4.5   0.6 NW | 326 9.9   2.6 0.00 0.00 69.9   4.6 52.5   7.7
Yountville-SE (Ranch 85) 5/2/26 1330 64.5   4.3 65   5 52.4   2.0 4.7   0.6 S | 190 11.7   3.4 0.00 0.00 65.7   3.3 53.2   7.8
Yountville-South (Ranch 87) 5/2/26 1330 65.4   4.0 64   4 52.8   1.9 5.4   1.7 SSE | 150 12.6   4.0 0.00 0.00 65.7   4.2 52.3   7.0
Rutherford Hill Estate 5/2/26 1330 66.8   3.6 62   3 53.2   2.1 3.8   1.0 S | 185 10.3   2.2 0.00 0.00 68.4   2.5 51.3   2.2
Rutherford (STS) 5/2/26 1330 68.6   3.8 65   5 56.4   1.5 7.0   4.1 SE | 125 12.4   4.7 0.00 0.00 70.0   2.8 52.5   7.7
Borreo (Soda Canyon) 5/2/26 1330 61.8   5.1 67   6 50.8   2.5 4.0   0.6 SSE | 153 9.2   1.6 0.00 0.00 62.4   4.9 50.9   6.3
Oakville-NE (Ranch 88) 5/2/26 1330 67.0   4.9 57   5 51.3   2.2 8.1   5.1 SSE | 166 15.8   8.2 0.00 0.00 67.7   4.9 52.0   7.2
Soda Canyon 5/2/26 1330 62.9   4.3 72   3 53.7   2.8 6.5   3.1 S | 175 12.4   4.1 0.00 0.00 63.4   4.5 53.7   11.4
Silver Oak OV 5/2/26 1330 65.1   4.9 64   5 52.6   2.5 9.7   5.1 SE | 128 16.8   7.7 0.00 0.00 65.8   4.8 52.2   6.4
Tiara Fria (East St. Helena) 5/2/26 1330 67.1   3.6 58   2 51.9   2.6 4.2   0.5 SSE | 153 9.4   2.7 0.00 0.00 67.9   3.5 53.4   5.7
To Kalon Remote (TKKE) 5/2/26 1330 68.0   4.5 - - - - - - - 69.8   3.8 52.9   8.5
To Kalon 5/2/26 1330 66.5   3.4 62   3 53.2   2.1 8.7   3.5 SE | 140 14.6   4.3 0.00 0.00 67.3   2.9 52.1   7.0
To Kalon Remote (TKN5) 5/2/26 1330 68.0   5.0 - - - - - - - 69.2   5.3 52.4   6.9
St. Helena-North 5/2/26 1330 67.2   5.2 56   4 51.0   2.9 2.7   3.0 SE | 146 8.8   1.1 0.00 0.00 67.8   5.3 52.8   6.7
Twomey Calistoga 5/2/26 1330 69.6   5.7 59   2 54.5   4.4 3.4   0.8 NW | 321 8.9   3.4 0.00 0.00 71.9   3.7 52.6   9.9
Wappo Hill Floor 5/2/26 1330 66.4   3.1 61   3 52.4   1.6 5.7   1.5 SSE | 164 10.4   1.9 0.00 0.00 66.4   3.5 52.5   9.0
Yountville (Ranch 67) 5/2/26 1330 65.5   3.8 59   3 50.9   2.3 7.5   0.8 SE | 128 16.1   5.3 0.00 0.00 65.5   4.2 52.2   6.8
Max     71.2 72 56.4 9.7 - 16.9 0.00 0.00 83.7 53.7
Avg     66.2 62 52.7 5.8 - 11.9 0.00 - - -
Min     61.8 56 50.8 1.5 - 4.8 0.00 0.00 62.4 45.5